MSC Magnifica — 3FLO4 — position and weather

sailwx.info

Track history (hours):
 
Tides and Currents Weather Stations Pressure Air Temp Water Temp Dewpoint Dewpoint Depression Visibility Wind Speed Wind Dir Waves Ship Positions

MSC Magnifica

Last reported at 2018-May-22 14:00 UTC. Time now 2018-May-22 14:04 UTC.
Position N 53°33' E 009°56'.

Length 294 m; draft 7.9 m.

Type: Passenger vessel. MMSI: 352594000.

Date/timePositionNaut miles runAvg speedWind from/ knotsBaromVisibWave heightAir tempDewpointWater temp
2018-May-22 14:00N 53°33' E 009°56'0 0.0
2018-May-22 13:30N 53°33' E 009°56'0 0.0
2018-May-22 13:00N 53°33' E 009°56'0 0.0
2018-May-22 12:27N 53°33' E 009°56'0 0.0
2018-May-22 12:00N 53°33' E 009°56'0 0.0
2018-May-22 11:27N 53°33' E 009°56'0 0.0
2018-May-22 11:00N 53°33' E 009°56'0 0.0
2018-May-22 10:30N 53°33' E 009°56'0 0.0
2018-May-22 09:59N 53°33' E 009°56'0 0.0
2018-May-22 09:29N 53°33' E 009°56'0 0.0
2018-May-22 08:59N 53°33' E 009°56'0 0.0
2018-May-22 08:29N 53°33' E 009°56'0 0.0
2018-May-22 07:59N 53°33' E 009°56'0 0.0
2018-May-22 07:29N 53°33' E 009°56'0 0.0
2018-May-22 06:59N 53°33' E 009°56'0 0.0
2018-May-22 06:29N 53°33' E 009°56'0 0.0
2018-May-22 05:59N 53°33' E 009°56'0 0.0
2018-May-22 05:29N 53°33' E 009°56'0 0.0
2018-May-22 04:59N 53°33' E 009°56'0 0.0
2018-May-22 04:30N 53°33' E 009°56'4 7.1
2018-May-22 04:01N 53°33' E 009°50'510.3
2018-May-22 03:31N 53°34' E 009°42'612.3
2018-May-22 03:00N 53°37' E 009°33'611.3
2018-May-22 02:30N 53°42' E 009°29'713.7
2018-May-22 02:00N 53°48' E 009°23'713.4
2018-May-22 01:30N 53°53' E 009°15'510.0
2018-May-22 01:00N 53°53' E 009°06'612.3
2018-May-22 00:30N 53°51' E 008°56'612.5
2018-May-22 00:00N 53°51' E 008°46'611.7
2018-May-21 23:30N 53°56' E 008°40'714.6
2018-May-21 23:00N 53°59' E 008°28'1213.6
2018-May-21 22:09N 53°60' E 008°09'1 9.4
2018-May-21 22:00N 53°60' E 008°06'1715.0
2018-May-21 20:52N 54°08' E 007°41'2416.4
2018-May-21 19:26N 54°28' E 007°20'716.4
2018-May-21 19:00N 54°34' E 007°14'816.7
2018-May-21 18:30N 54°41' E 007°07'816.9
2018-May-21 18:00N 54°49' E 006°59'816.9
2018-May-21 17:30N 54°56' E 006°52'917.0
2018-May-21 17:00N 55°04' E 006°48'917.1
2018-May-21 16:30N 55°12' E 006°43'917.6
2018-May-21 16:00N 55°21' E 006°39'918.0
2018-May-21 15:30N 55°29' E 006°34'8619.2
2018-May-21 11:00N 56°51' E 005°44'1019.2
2018-May-21 10:30N 56°60' E 005°37'919.2
2018-May-21 10:00N 57°09' E 005°30'1219.3
2018-May-21 09:23N 57°20' E 005°21'1019.8
2018-May-21 08:53N 57°29' E 005°14'5819.6
2018-May-21 05:55N 58°22' E 004°30'819.1
2018-May-21 05:29N 58°29' E 004°23'919.3
2018-May-21 05:00N 58°38' E 004°16'1119.8
2018-May-21 04:27N 58°48' E 004°08'919.3
2018-May-21 03:58N 58°57' E 004°03'919.3
2018-May-21 03:30N 59°06' E 004°03'1120.7
2018-May-21 03:00N 59°16' E 004°02'16019.6
2018-May-20 18:48N 61°56' E 004°25'619.0
2018-May-20 18:30N 62°01' E 004°32'1019.0
2018-May-20 17:59N 62°09' E 004°42'918.9
2018-May-20 17:30N 62°17' E 004°53'1019.0
2018-May-20 17:00N 62°23' E 005°09'918.5
2018-May-20 16:30N 62°28' E 005°26'816.7
2018-May-20 16:00N 62°30' E 005°44'918.4
2018-May-20 15:30N 62°27' E 006°02'3 6.8
2018-May-20 15:00N 62°28' E 006°09'0 0.0
2018-May-20 14:29N 62°28' E 006°09'0 0.0
2018-May-20 13:59N 62°28' E 006°09'0 0.0
2018-May-20 13:29N 62°28' E 006°09'0 0.0
2018-May-20 12:59N 62°28' E 006°09'0 0.0
2018-May-20 12:29N 62°28' E 006°09'0 0.0
2018-May-20 11:59N 62°28' E 006°09'0 0.0
2018-May-20 11:30N 62°28' E 006°09'0 0.0
2018-May-20 10:58N 62°28' E 006°09'0 0.0
2018-May-20 10:30N 62°28' E 006°09'0 0.0
2018-May-20 10:00N 62°28' E 006°09'0 0.0
2018-May-20 09:30N 62°28' E 006°09'0 0.0
2018-May-20 08:58N 62°28' E 006°09'0 0.0
2018-May-20 08:30N 62°28' E 006°09'0 0.0
2018-May-20 08:00N 62°28' E 006°09'0 0.0
2018-May-20 07:30N 62°28' E 006°09'0 0.0
2018-May-20 07:00N 62°28' E 006°09'0 0.0
2018-May-20 06:30N 62°28' E 006°09'0 0.0
2018-May-20 06:00N 62°28' E 006°09'0 0.0
2018-May-20 05:30N 62°28' E 006°09'1 1.5
2018-May-20 05:00N 62°28' E 006°11'510.8
2018-May-20 04:30N 62°27' E 005°59'4 9.0
2018-May-20 04:00N 62°28' E 005°50'5 8.9
2018-May-20 03:30N 62°30' E 005°41'4 8.9
2018-May-20 03:00N 62°31' E 005°32'5 8.9
2018-May-20 02:29N 62°31' E 005°22'4 8.6
2018-May-20 02:00N 62°31' E 005°13'5 8.9
2018-May-20 01:30N 62°30' E 005°03'34 7.1
2018-May-19 20:38N 62°01' E 004°26'1 8.9
2018-May-19 20:29N 62°01' E 004°29'4 8.7
2018-May-19 20:00N 61°60' E 004°38'5 9.3
2018-May-19 19:30N 61°59' E 004°48'510.4
2018-May-19 19:00N 61°57' E 004°58'612.6
2018-May-19 18:30N 61°54' E 005°09'815.7
2018-May-19 18:01N 61°55' E 005°25'28 2.0
2018-May-19 04:17N 61°50' E 006°24'614.6
2018-May-19 03:52N 61°51' E 006°11'715.0
2018-May-19 03:22N 61°52' E 005°55'813.9
2018-May-19 02:49N 61°54' E 005°40'515.5
2018-May-19 02:29N 61°55' E 005°29'715.2
2018-May-19 02:00N 61°54' E 005°13'713.4
2018-May-19 01:30N 61°56' E 004°60'611.2
2018-May-19 00:59N 61°59' E 004°50'612.4
2018-May-19 00:30N 61°54' E 004°41'612.6
2018-May-19 00:00N 61°49' E 004°33'612.6
2018-May-18 23:30N 61°44' E 004°26'4411.3
2018-May-18 19:39N 61°01' E 004°14'213.7
2018-May-18 19:30N 60°59' E 004°17'714.1
2018-May-18 19:00N 60°54' E 004°26'714.7
2018-May-18 18:30N 60°48' E 004°35'816.3
2018-May-18 18:00N 60°43' E 004°47'917.9
2018-May-18 17:29N 60°34' E 004°55'917.7
2018-May-18 16:59N 60°26' E 005°02'611.1
2018-May-18 16:29N 60°24' E 005°13'3 5.8
2018-May-18 15:59N 60°23' E 005°18'0 0.0
2018-May-18 15:29N 60°23' E 005°18'0 0.0
2018-May-18 14:59N 60°23' E 005°18'0 0.0
2018-May-18 14:29N 60°23' E 005°18'0 0.0
2018-May-18 13:59N 60°23' E 005°18'0 0.0
2018-May-18 13:29N 60°23' E 005°18'0 0.0
2018-May-18 12:59N 60°23' E 005°18'0 0.0
2018-May-18 12:29N 60°23' E 005°18'0 0.0
2018-May-18 11:58N 60°23' E 005°18'0 0.0
2018-May-18 11:28N 60°23' E 005°18'0 0.0
2018-May-18 10:58N 60°23' E 005°18'0 0.0
2018-May-18 10:30N 60°23' E 005°18'0 0.0
2018-May-18 10:00N 60°23' E 005°18'0 0.0
2018-May-18 09:30N 60°23' E 005°18'0 0.0
2018-May-18 08:59N 60°23' E 005°18'0 0.0
2018-May-18 08:29N 60°23' E 005°18'0 0.0
2018-May-18 07:59N 60°23' E 005°18'0 0.0
2018-May-18 07:30N 60°23' E 005°18'0 0.0
2018-May-18 07:00N 60°23' E 005°18'0 0.0
2018-May-18 06:29N 60°23' E 005°18'0 0.1
2018-May-18 06:00N 60°23' E 005°18'1 2.7
2018-May-18 05:29N 60°24' E 005°16'4 8.5
2018-May-18 05:00N 60°24' E 005°08'815.2
2018-May-18 04:30N 60°30' E 004°58'917.9
2018-May-18 04:00N 60°38' E 004°52'714.6
2018-May-18 03:30N 60°44' E 004°44'611.5
2018-May-18 03:00N 60°42' E 004°33'713.3
2018-May-18 02:30N 60°36' E 004°26'8512.5
2018-May-17 19:44N 59°12' E 004°48'312.4
2018-May-17 19:30N 59°10' E 004°52'612.8
2018-May-17 19:00N 59°07' E 005°03'714.5
2018-May-17 18:30N 59°06' E 005°17'713.3
2018-May-17 18:00N 59°06' E 005°30'714.5
2018-May-17 17:30N 59°01' E 005°39'3 6.9
2018-May-17 17:00N 58°58' E 005°44'0 0.0
2018-May-17 16:28N 58°58' E 005°44'0 0.0
2018-May-17 15:58N 58°58' E 005°44'0 0.0
2018-May-17 15:28N 58°58' E 005°44'0 0.0
2018-May-17 14:58N 58°58' E 005°44'0 0.0
2018-May-17 14:28N 58°58' E 005°44'0 0.0
2018-May-17 13:58N 58°58' E 005°44'0 0.0
2018-May-17 13:28N 58°58' E 005°44'0 0.0
2018-May-17 12:58N 58°58' E 005°44'0 0.0
2018-May-17 12:28N 58°58' E 005°44'0 0.0
2018-May-17 11:58N 58°58' E 005°44'0 0.0
2018-May-17 11:28N 58°58' E 005°44'0 0.0
2018-May-17 10:58N 58°58' E 005°44'0 0.0
2018-May-17 10:28N 58°58' E 005°44'0 0.0
2018-May-17 09:58N 58°58' E 005°44'0 0.0
2018-May-17 09:28N 58°58' E 005°44'0 0.0
2018-May-17 08:58N 58°58' E 005°44'0 0.0
2018-May-17 08:28N 58°58' E 005°44'0 0.0
2018-May-17 07:58N 58°58' E 005°44'0 0.0
2018-May-17 07:28N 58°58' E 005°44'0 0.0
2018-May-17 06:58N 58°58' E 005°44'0 0.0
2018-May-17 06:28N 58°58' E 005°44'0 0.0
2018-May-17 05:58N 58°58' E 005°44'0 0.5
2018-May-17 05:30N 58°59' E 005°44'4 7.6
2018-May-17 05:00N 59°01' E 005°39'4 7.0
2018-May-17 04:30N 58°59' E 005°33'816.3
2018-May-17 04:00N 58°51' E 005°31'714.9
2018-May-17 03:30N 58°46' E 005°21'816.1
2018-May-17 03:00N 58°40' E 005°12'918.2
2018-May-17 02:30N 58°32' E 005°03'32117.8
2018-May-16 08:29N 53°15' E 003°33'1116.2
2018-May-16 07:50N 53°05' E 003°27'616.2
2018-May-16 07:28N 52°60' E 003°23'816.5
2018-May-16 07:00N 52°53' E 003°18'917.0
2018-May-16 06:30N 52°45' E 003°12'1017.6
2018-May-16 05:58N 52°37' E 003°04'918.1
2018-May-16 05:29N 52°29' E 002°58'918.5
2018-May-16 04:59N 52°21' E 002°51'918.9
2018-May-16 04:30N 52°13' E 002°44'1019.1
2018-May-16 04:00N 52°04' E 002°39'1019.4
2018-May-16 03:30N 51°54' E 002°37'1019.0
2018-May-16 02:59N 51°44' E 002°33'919.6
2018-May-16 02:30N 51°37' E 002°23'1019.9
2018-May-16 02:00N 51°30' E 002°13'1020.0
2018-May-16 01:30N 51°22' E 002°02'1020.5
2018-May-16 01:00N 51°15' E 001°51'1121.2
2018-May-16 00:30N 51°07' E 001°40'1121.6
2018-May-16 00:00N 50°58' E 001°29'1020.5
2018-May-15 23:30N 50°49' E 001°23'1019.2
2018-May-15 23:00N 50°40' E 001°15'1019.6
2018-May-15 22:29N 50°33' E 001°04'5020.3
2018-May-15 20:00N 49°54' E 000°15'1021.0
2018-May-15 19:30N 49°46' E 000°05'918.8
2018-May-15 19:00N 49°37' W 000°00'713.7
2018-May-15 18:30N 49°30' E 000°01'4 8.4
2018-May-15 18:01N 49°29' E 000°07'0 0.0
2018-May-15 17:30N 49°29' E 000°07'0 0.0
2018-May-15 16:59N 49°29' E 000°07'0 0.0
2018-May-15 16:22N 49°29' E 000°07'0 0.0
2018-May-15 15:58N 49°29' E 000°07'0 0.0
2018-May-15 15:28N 49°29' E 000°07'0 0.0
2018-May-15 14:58N 49°29' E 000°07'0 0.0
2018-May-15 14:28N 49°29' E 000°07'0 0.0
2018-May-15 13:57N 49°29' E 000°07'0 0.0
2018-May-15 13:29N 49°29' E 000°07'0 0.0
2018-May-15 12:59N 49°29' E 000°07'0 0.0
2018-May-15 12:29N 49°29' E 000°07'0 0.0
2018-May-15 11:58N 49°29' E 000°07'0 0.0
2018-May-15 11:30N 49°29' E 000°07'0 0.0
2018-May-15 11:00N 49°29' E 000°07'0 0.0
2018-May-15 10:29N 49°29' E 000°07'0 0.0
2018-May-15 09:59N 49°29' E 000°07'0 0.0
2018-May-15 09:29N 49°29' E 000°07'0 0.0
2018-May-15 09:00N 49°29' E 000°07'0 0.0
2018-May-15 08:30N 49°29' E 000°07'0 0.0
2018-May-15 07:59N 49°29' E 000°07'0 0.0
2018-May-15 07:29N 49°29' E 000°07'0 0.0
2018-May-15 06:59N 49°29' E 000°07'0 0.0
2018-May-15 06:28N 49°29' E 000°07'0 0.0
2018-May-15 05:58N 49°29' E 000°07'0 0.0
2018-May-15 05:30N 49°29' E 000°07'0 0.0
2018-May-15 05:00N 49°29' E 000°07'0 0.0
2018-May-15 04:30N 49°29' E 000°07'0 0.4
2018-May-15 04:00N 49°29' E 000°07'611.7
2018-May-15 03:31N 49°31' W 000°02'510.5
2018-May-15 03:00N 49°32' W 000°10'612.3
2018-May-15 02:30N 49°35' W 000°18'713.5
2018-May-15 02:00N 49°41' W 000°22'713.2
2018-May-15 01:31N 49°47' W 000°25'713.2
2018-May-15 01:00N 49°53' W 000°29'713.3
2018-May-15 00:30N 49°60' W 000°33'713.1
2018-May-15 00:00N 50°06' W 000°36'613.1
2018-May-14 23:30N 50°12' W 000°39'714.0
2018-May-14 23:00N 50°18' W 000°43'713.4
2018-May-14 22:30N 50°25' W 000°47'714.0
2018-May-14 22:00N 50°31' W 000°51'714.1
2018-May-14 21:30N 50°38' W 000°55'611.0
2018-May-14 21:00N 50°42' W 000°59'713.5
2018-May-14 20:30N 50°45' W 001°09'612.7
2018-May-14 20:00N 50°48' W 001°18'7 7.2
2018-May-14 18:59N 50°54' W 001°25'0 0.0
2018-May-14 18:29N 50°54' W 001°25'0 0.0
2018-May-14 17:29N 50°54' W 001°25'0 0.0
2018-May-14 16:59N 50°54' W 001°25'0 0.0
2018-May-14 16:29N 50°54' W 001°25'0 0.0
2018-May-14 15:59N 50°54' W 001°25'0 0.0
2018-May-14 15:29N 50°54' W 001°25'0 0.0
2018-May-14 14:59N 50°54' W 001°25'0 0.0
2018-May-14 14:29N 50°54' W 001°25'0 0.0
2018-May-14 13:59N 50°54' W 001°25'0 0.0
2018-May-14 12:59N 50°54' W 001°25'0 0.0
2018-May-14 12:29N 50°54' W 001°25'0 0.0
2018-May-14 11:59N 50°54' W 001°25'0 0.0
2018-May-14 11:29N 50°54' W 001°25'0 0.0
2018-May-14 10:56N 50°54' W 001°25'0 0.0
2018-May-14 10:28N 50°54' W 001°25'0 0.0
2018-May-14 09:52N 50°54' W 001°25'0 0.0
2018-May-14 09:28N 50°54' W 001°25'0 0.0
2018-May-14 08:58N 50°54' W 001°25'0 0.0
2018-May-14 08:28N 50°54' W 001°25'0 0.0
2018-May-14 07:55N 50°54' W 001°25'0 0.0
2018-May-14 07:28N 50°54' W 001°25'0 0.0
2018-May-14 06:58N 50°54' W 001°25'0 0.2
2018-May-14 06:30N 50°54' W 001°25'3 6.6
2018-May-14 06:00N 50°52' W 001°21'5 9.8
2018-May-14 05:30N 50°47' W 001°19'714.0
2018-May-14 05:00N 50°46' W 001°08'815.9
2018-May-14 04:30N 50°41' W 000°57'5 9.2
2018-May-14 04:00N 50°39' W 000°52'612.7
2018-May-14 03:30N 50°37' W 000°42'713.0
2018-May-14 03:00N 50°35' W 000°32'612.8
2018-May-14 02:30N 50°34' W 000°22'613.0
2018-May-14 02:00N 50°31' W 000°13'713.4
2018-May-14 01:30N 50°30' W 000°02'713.5
2018-May-14 01:00N 50°32' E 000°08'713.7
2018-May-14 00:30N 50°33' E 000°18'713.6
2018-May-14 00:00N 50°35' E 000°28'713.5
2018-May-13 23:29N 50°38' E 000°39'714.0
2018-May-13 23:01N 50°42' E 000°47'713.6
2018-May-13 22:30N 50°46' E 000°56'713.2
2018-May-13 22:00N 50°50' E 001°05'713.1
2018-May-13 21:30N 50°55' E 001°12'1012.8
2018-May-13 20:46N 51°02' E 001°22'311.9
2018-May-13 20:30N 51°04' E 001°26'612.5
2018-May-13 20:00N 51°07' E 001°34'713.4
2018-May-13 19:30N 51°11' E 001°42'713.9
2018-May-13 19:00N 51°17' E 001°49'714.3
2018-May-13 18:31N 51°23' E 001°54'815.3
2018-May-13 18:00N 51°30' E 002°01'816.6
2018-May-13 17:31N 51°36' E 002°10'816.3
2018-May-13 16:59N 51°42' E 002°19'815.7
2018-May-13 16:29N 51°48' E 002°28'815.2
2018-May-13 15:58N 51°53' E 002°37'1414.7
2018-May-13 15:00N 52°05' E 002°51'816.7
2018-May-13 14:30N 52°11' E 002°59'917.3
2018-May-13 14:00N 52°18' E 003°08'815.9
2018-May-13 13:30N 52°25' E 003°15'816.8
2018-May-13 13:00N 52°32' E 003°23'916.9
2018-May-13 12:29N 52°39' E 003°32'817.3
2018-May-13 12:00N 52°45' E 003°40'917.9
2018-May-13 11:30N 52°52' E 003°50'918.4
2018-May-13 11:00N 52°58' E 004°02'1018.7
2018-May-13 10:29N 53°04' E 004°14'919.0
2018-May-13 10:01N 53°11' E 004°24'1019.2
2018-May-13 09:30N 53°20' E 004°30'918.7
2018-May-13 09:01N 53°28' E 004°38'918.6
2018-May-13 08:31N 53°32' E 004°52'918.4
2018-May-13 08:01N 53°36' E 005°06'11617.9
2018-May-13 01:31N 53°60' E 008°19'014.6
2018-May-13 01:30N 53°60' E 008°19'814.8
2018-May-13 00:58N 53°58' E 008°33'613.4
2018-May-13 00:29N 53°54' E 008°41'612.1
2018-May-13 00:00N 53°50' E 008°49'613.1
2018-May-12 23:30N 53°51' E 008°60'611.9
2018-May-12 23:00N 53°53' E 009°09'4 8.7
2018-May-12 22:31N 53°52' E 009°17'612.0
2018-May-12 22:01N 53°47' E 009°23'510.2
2018-May-12 21:31N 53°43' E 009°28'510.1
2018-May-12 21:00N 53°39' E 009°31'510.9
2018-May-12 20:31N 53°35' E 009°38'510.3
2018-May-12 20:00N 53°34' E 009°46'5 9.7
2018-May-12 19:30N 53°33' E 009°54'1 2.6
2018-May-12 19:00N 53°33' E 009°56'0 0.0
2018-May-12 18:30N 53°33' E 009°56'0 0.0
2018-May-12 18:00N 53°33' E 009°56'0 0.0
2018-May-12 17:30N 53°33' E 009°56'0 0.0
2018-May-12 16:59N 53°33' E 009°56'0 0.0
2018-May-12 16:29N 53°33' E 009°56'0 0.0
2018-May-12 15:59N 53°33' E 009°56'0 0.0
2018-May-12 15:29N 53°33' E 009°56'0 0.0
2018-May-12 14:59N 53°33' E 009°56'0 0.0
2018-May-12 14:29N 53°33' E 009°56'  
Track history (hours):
 
Tides and Currents Weather Stations Pressure Air Temp Water Temp Dewpoint Dewpoint Depression Visibility Wind Speed Wind Dir Waves Ship Positions

MSC Magnifica

Last reported at 2018-May-22 14:00 UTC. Time now 2018-May-22 14:04 UTC.
Position N 53°33' E 009°56'.

Length 294 m; draft 7.9 m.

Type: Passenger vessel. MMSI: 352594000.

Date/timePositionNaut miles runAvg speedWind from/ knotsBaromVisibWave heightAir tempDewpointWater temp
2018-May-22 14:00N 53°33' E 009°56'0 0.0
2018-May-22 13:30N 53°33' E 009°56'0 0.0
2018-May-22 13:00N 53°33' E 009°56'0 0.0
2018-May-22 12:27N 53°33' E 009°56'0 0.0
2018-May-22 12:00N 53°33' E 009°56'0 0.0
2018-May-22 11:27N 53°33' E 009°56'0 0.0
2018-May-22 11:00N 53°33' E 009°56'0 0.0
2018-May-22 10:30N 53°33' E 009°56'0 0.0
2018-May-22 09:59N 53°33' E 009°56'0 0.0
2018-May-22 09:29N 53°33' E 009°56'0 0.0
2018-May-22 08:59N 53°33' E 009°56'0 0.0
2018-May-22 08:29N 53°33' E 009°56'0 0.0
2018-May-22 07:59N 53°33' E 009°56'0 0.0
2018-May-22 07:29N 53°33' E 009°56'0 0.0
2018-May-22 06:59N 53°33' E 009°56'0 0.0
2018-May-22 06:29N 53°33' E 009°56'0 0.0
2018-May-22 05:59N 53°33' E 009°56'0 0.0
2018-May-22 05:29N 53°33' E 009°56'0 0.0
2018-May-22 04:59N 53°33' E 009°56'0 0.0
2018-May-22 04:30N 53°33' E 009°56'4 7.1
2018-May-22 04:01N 53°33' E 009°50'510.3
2018-May-22 03:31N 53°34' E 009°42'612.3
2018-May-22 03:00N 53°37' E 009°33'611.3
2018-May-22 02:30N 53°42' E 009°29'713.7
2018-May-22 02:00N 53°48' E 009°23'713.4
2018-May-22 01:30N 53°53' E 009°15'510.0
2018-May-22 01:00N 53°53' E 009°06'612.3
2018-May-22 00:30N 53°51' E 008°56'612.5
2018-May-22 00:00N 53°51' E 008°46'611.7
2018-May-21 23:30N 53°56' E 008°40'714.6
2018-May-21 23:00N 53°59' E 008°28'1213.6
2018-May-21 22:09N 53°60' E 008°09'1 9.4
2018-May-21 22:00N 53°60' E 008°06'1715.0
2018-May-21 20:52N 54°08' E 007°41'2416.4
2018-May-21 19:26N 54°28' E 007°20'716.4
2018-May-21 19:00N 54°34' E 007°14'816.7
2018-May-21 18:30N 54°41' E 007°07'816.9
2018-May-21 18:00N 54°49' E 006°59'816.9
2018-May-21 17:30N 54°56' E 006°52'917.0
2018-May-21 17:00N 55°04' E 006°48'917.1
2018-May-21 16:30N 55°12' E 006°43'917.6
2018-May-21 16:00N 55°21' E 006°39'918.0
2018-May-21 15:30N 55°29' E 006°34'8619.2
2018-May-21 11:00N 56°51' E 005°44'1019.2
2018-May-21 10:30N 56°60' E 005°37'919.2
2018-May-21 10:00N 57°09' E 005°30'1219.3
2018-May-21 09:23N 57°20' E 005°21'1019.8
2018-May-21 08:53N 57°29' E 005°14'5819.6
2018-May-21 05:55N 58°22' E 004°30'819.1
2018-May-21 05:29N 58°29' E 004°23'919.3
2018-May-21 05:00N 58°38' E 004°16'1119.8
2018-May-21 04:27N 58°48' E 004°08'919.3
2018-May-21 03:58N 58°57' E 004°03'919.3
2018-May-21 03:30N 59°06' E 004°03'1120.7
2018-May-21 03:00N 59°16' E 004°02'16019.6
2018-May-20 18:48N 61°56' E 004°25'619.0
2018-May-20 18:30N 62°01' E 004°32'1019.0
2018-May-20 17:59N 62°09' E 004°42'918.9
2018-May-20 17:30N 62°17' E 004°53'1019.0
2018-May-20 17:00N 62°23' E 005°09'918.5
2018-May-20 16:30N 62°28' E 005°26'816.7
2018-May-20 16:00N 62°30' E 005°44'918.4
2018-May-20 15:30N 62°27' E 006°02'3 6.8
2018-May-20 15:00N 62°28' E 006°09'0 0.0
2018-May-20 14:29N 62°28' E 006°09'0 0.0
2018-May-20 13:59N 62°28' E 006°09'0 0.0
2018-May-20 13:29N 62°28' E 006°09'0 0.0
2018-May-20 12:59N 62°28' E 006°09'0 0.0
2018-May-20 12:29N 62°28' E 006°09'0 0.0
2018-May-20 11:59N 62°28' E 006°09'0 0.0
2018-May-20 11:30N 62°28' E 006°09'0 0.0
2018-May-20 10:58N 62°28' E 006°09'0 0.0
2018-May-20 10:30N 62°28' E 006°09'0 0.0
2018-May-20 10:00N 62°28' E 006°09'0 0.0
2018-May-20 09:30N 62°28' E 006°09'0 0.0
2018-May-20 08:58N 62°28' E 006°09'0 0.0
2018-May-20 08:30N 62°28' E 006°09'0 0.0
2018-May-20 08:00N 62°28' E 006°09'0 0.0
2018-May-20 07:30N 62°28' E 006°09'0 0.0
2018-May-20 07:00N 62°28' E 006°09'0 0.0
2018-May-20 06:30N 62°28' E 006°09'0 0.0
2018-May-20 06:00N 62°28' E 006°09'0 0.0
2018-May-20 05:30N 62°28' E 006°09'1 1.5
2018-May-20 05:00N 62°28' E 006°11'510.8
2018-May-20 04:30N 62°27' E 005°59'4 9.0
2018-May-20 04:00N 62°28' E 005°50'5 8.9
2018-May-20 03:30N 62°30' E 005°41'4 8.9
2018-May-20 03:00N 62°31' E 005°32'5 8.9
2018-May-20 02:29N 62°31' E 005°22'4 8.6
2018-May-20 02:00N 62°31' E 005°13'5 8.9
2018-May-20 01:30N 62°30' E 005°03'34 7.1
2018-May-19 20:38N 62°01' E 004°26'1 8.9
2018-May-19 20:29N 62°01' E 004°29'4 8.7
2018-May-19 20:00N 61°60' E 004°38'5 9.3
2018-May-19 19:30N 61°59' E 004°48'510.4
2018-May-19 19:00N 61°57' E 004°58'612.6
2018-May-19 18:30N 61°54' E 005°09'815.7
2018-May-19 18:01N 61°55' E 005°25'28 2.0
2018-May-19 04:17N 61°50' E 006°24'614.6
2018-May-19 03:52N 61°51' E 006°11'715.0
2018-May-19 03:22N 61°52' E 005°55'813.9
2018-May-19 02:49N 61°54' E 005°40'515.5
2018-May-19 02:29N 61°55' E 005°29'715.2
2018-May-19 02:00N 61°54' E 005°13'713.4
2018-May-19 01:30N 61°56' E 004°60'611.2
2018-May-19 00:59N 61°59' E 004°50'612.4
2018-May-19 00:30N 61°54' E 004°41'612.6
2018-May-19 00:00N 61°49' E 004°33'612.6
2018-May-18 23:30N 61°44' E 004°26'4411.3
2018-May-18 19:39N 61°01' E 004°14'213.7
2018-May-18 19:30N 60°59' E 004°17'714.1
2018-May-18 19:00N 60°54' E 004°26'714.7
2018-May-18 18:30N 60°48' E 004°35'816.3
2018-May-18 18:00N 60°43' E 004°47'917.9
2018-May-18 17:29N 60°34' E 004°55'917.7
2018-May-18 16:59N 60°26' E 005°02'611.1
2018-May-18 16:29N 60°24' E 005°13'3 5.8
2018-May-18 15:59N 60°23' E 005°18'0 0.0
2018-May-18 15:29N 60°23' E 005°18'0 0.0
2018-May-18 14:59N 60°23' E 005°18'0 0.0
2018-May-18 14:29N 60°23' E 005°18'0 0.0
2018-May-18 13:59N 60°23' E 005°18'0 0.0
2018-May-18 13:29N 60°23' E 005°18'0 0.0
2018-May-18 12:59N 60°23' E 005°18'0 0.0
2018-May-18 12:29N 60°23' E 005°18'0 0.0
2018-May-18 11:58N 60°23' E 005°18'0 0.0
2018-May-18 11:28N 60°23' E 005°18'0 0.0
2018-May-18 10:58N 60°23' E 005°18'0 0.0
2018-May-18 10:30N 60°23' E 005°18'0 0.0
2018-May-18 10:00N 60°23' E 005°18'0 0.0
2018-May-18 09:30N 60°23' E 005°18'0 0.0
2018-May-18 08:59N 60°23' E 005°18'0 0.0
2018-May-18 08:29N 60°23' E 005°18'0 0.0
2018-May-18 07:59N 60°23' E 005°18'0 0.0
2018-May-18 07:30N 60°23' E 005°18'0 0.0
2018-May-18 07:00N 60°23' E 005°18'0 0.0
2018-May-18 06:29N 60°23' E 005°18'0 0.1
2018-May-18 06:00N 60°23' E 005°18'1 2.7
2018-May-18 05:29N 60°24' E 005°16'4 8.5
2018-May-18 05:00N 60°24' E 005°08'815.2
2018-May-18 04:30N 60°30' E 004°58'917.9
2018-May-18 04:00N 60°38' E 004°52'714.6
2018-May-18 03:30N 60°44' E 004°44'611.5
2018-May-18 03:00N 60°42' E 004°33'713.3
2018-May-18 02:30N 60°36' E 004°26'8512.5
2018-May-17 19:44N 59°12' E 004°48'312.4
2018-May-17 19:30N 59°10' E 004°52'612.8
2018-May-17 19:00N 59°07' E 005°03'714.5
2018-May-17 18:30N 59°06' E 005°17'713.3
2018-May-17 18:00N 59°06' E 005°30'714.5
2018-May-17 17:30N 59°01' E 005°39'3 6.9
2018-May-17 17:00N 58°58' E 005°44'0 0.0
2018-May-17 16:28N 58°58' E 005°44'0 0.0
2018-May-17 15:58N 58°58' E 005°44'0 0.0
2018-May-17 15:28N 58°58' E 005°44'0 0.0
2018-May-17 14:58N 58°58' E 005°44'0 0.0
2018-May-17 14:28N 58°58' E 005°44'0 0.0
2018-May-17 13:58N 58°58' E 005°44'0 0.0
2018-May-17 13:28N 58°58' E 005°44'0 0.0
2018-May-17 12:58N 58°58' E 005°44'0 0.0
2018-May-17 12:28N 58°58' E 005°44'0 0.0
2018-May-17 11:58N 58°58' E 005°44'0 0.0
2018-May-17 11:28N 58°58' E 005°44'0 0.0
2018-May-17 10:58N 58°58' E 005°44'0 0.0
2018-May-17 10:28N 58°58' E 005°44'0 0.0
2018-May-17 09:58N 58°58' E 005°44'0 0.0
2018-May-17 09:28N 58°58' E 005°44'0 0.0
2018-May-17 08:58N 58°58' E 005°44'0 0.0
2018-May-17 08:28N 58°58' E 005°44'0 0.0
2018-May-17 07:58N 58°58' E 005°44'0 0.0
2018-May-17 07:28N 58°58' E 005°44'0 0.0
2018-May-17 06:58N 58°58' E 005°44'0 0.0
2018-May-17 06:28N 58°58' E 005°44'0 0.0
2018-May-17 05:58N 58°58' E 005°44'0 0.5
2018-May-17 05:30N 58°59' E 005°44'4 7.6
2018-May-17 05:00N 59°01' E 005°39'4 7.0
2018-May-17 04:30N 58°59' E 005°33'816.3
2018-May-17 04:00N 58°51' E 005°31'714.9
2018-May-17 03:30N 58°46' E 005°21'816.1
2018-May-17 03:00N 58°40' E 005°12'918.2
2018-May-17 02:30N 58°32' E 005°03'32117.8
2018-May-16 08:29N 53°15' E 003°33'1116.2
2018-May-16 07:50N 53°05' E 003°27'616.2
2018-May-16 07:28N 52°60' E 003°23'816.5
2018-May-16 07:00N 52°53' E 003°18'917.0
2018-May-16 06:30N 52°45' E 003°12'1017.6
2018-May-16 05:58N 52°37' E 003°04'918.1
2018-May-16 05:29N 52°29' E 002°58'918.5
2018-May-16 04:59N 52°21' E 002°51'918.9
2018-May-16 04:30N 52°13' E 002°44'1019.1
2018-May-16 04:00N 52°04' E 002°39'1019.4
2018-May-16 03:30N 51°54' E 002°37'1019.0
2018-May-16 02:59N 51°44' E 002°33'919.6
2018-May-16 02:30N 51°37' E 002°23'1019.9
2018-May-16 02:00N 51°30' E 002°13'1020.0
2018-May-16 01:30N 51°22' E 002°02'1020.5
2018-May-16 01:00N 51°15' E 001°51'1121.2
2018-May-16 00:30N 51°07' E 001°40'1121.6
2018-May-16 00:00N 50°58' E 001°29'1020.5
2018-May-15 23:30N 50°49' E 001°23'1019.2
2018-May-15 23:00N 50°40' E 001°15'1019.6
2018-May-15 22:29N 50°33' E 001°04'5020.3
2018-May-15 20:00N 49°54' E 000°15'1021.0
2018-May-15 19:30N 49°46' E 000°05'918.8
2018-May-15 19:00N 49°37' W 000°00'713.7
2018-May-15 18:30N 49°30' E 000°01'4 8.4
2018-May-15 18:01N 49°29' E 000°07'0 0.0
2018-May-15 17:30N 49°29' E 000°07'0 0.0
2018-May-15 16:59N 49°29' E 000°07'0 0.0
2018-May-15 16:22N 49°29' E 000°07'0 0.0
2018-May-15 15:58N 49°29' E 000°07'0 0.0
2018-May-15 15:28N 49°29' E 000°07'0 0.0
2018-May-15 14:58N 49°29' E 000°07'0 0.0
2018-May-15 14:28N 49°29' E 000°07'0 0.0
2018-May-15 13:57N 49°29' E 000°07'0 0.0
2018-May-15 13:29N 49°29' E 000°07'0 0.0
2018-May-15 12:59N 49°29' E 000°07'0 0.0
2018-May-15 12:29N 49°29' E 000°07'0 0.0
2018-May-15 11:58N 49°29' E 000°07'0 0.0
2018-May-15 11:30N 49°29' E 000°07'0 0.0
2018-May-15 11:00N 49°29' E 000°07'0 0.0
2018-May-15 10:29N 49°29' E 000°07'0 0.0
2018-May-15 09:59N 49°29' E 000°07'0 0.0
2018-May-15 09:29N 49°29' E 000°07'0 0.0
2018-May-15 09:00N 49°29' E 000°07'0 0.0
2018-May-15 08:30N 49°29' E 000°07'0 0.0
2018-May-15 07:59N 49°29' E 000°07'0 0.0
2018-May-15 07:29N 49°29' E 000°07'0 0.0
2018-May-15 06:59N 49°29' E 000°07'0 0.0
2018-May-15 06:28N 49°29' E 000°07'0 0.0
2018-May-15 05:58N 49°29' E 000°07'0 0.0
2018-May-15 05:30N 49°29' E 000°07'0 0.0
2018-May-15 05:00N 49°29' E 000°07'0 0.0
2018-May-15 04:30N 49°29' E 000°07'0 0.4
2018-May-15 04:00N 49°29' E 000°07'611.7
2018-May-15 03:31N 49°31' W 000°02'510.5
2018-May-15 03:00N 49°32' W 000°10'612.3
2018-May-15 02:30N 49°35' W 000°18'713.5
2018-May-15 02:00N 49°41' W 000°22'713.2
2018-May-15 01:31N 49°47' W 000°25'713.2
2018-May-15 01:00N 49°53' W 000°29'713.3
2018-May-15 00:30N 49°60' W 000°33'713.1
2018-May-15 00:00N 50°06' W 000°36'613.1
2018-May-14 23:30N 50°12' W 000°39'714.0
2018-May-14 23:00N 50°18' W 000°43'713.4
2018-May-14 22:30N 50°25' W 000°47'714.0
2018-May-14 22:00N 50°31' W 000°51'714.1
2018-May-14 21:30N 50°38' W 000°55'611.0
2018-May-14 21:00N 50°42' W 000°59'713.5
2018-May-14 20:30N 50°45' W 001°09'612.7
2018-May-14 20:00N 50°48' W 001°18'7 7.2
2018-May-14 18:59N 50°54' W 001°25'0 0.0
2018-May-14 18:29N 50°54' W 001°25'0 0.0
2018-May-14 17:29N 50°54' W 001°25'0 0.0
2018-May-14 16:59N 50°54' W 001°25'0 0.0
2018-May-14 16:29N 50°54' W 001°25'0 0.0
2018-May-14 15:59N 50°54' W 001°25'0 0.0
2018-May-14 15:29N 50°54' W 001°25'0 0.0
2018-May-14 14:59N 50°54' W 001°25'0 0.0
2018-May-14 14:29N 50°54' W 001°25'0 0.0
2018-May-14 13:59N 50°54' W 001°25'0 0.0
2018-May-14 12:59N 50°54' W 001°25'0 0.0
2018-May-14 12:29N 50°54' W 001°25'0 0.0
2018-May-14 11:59N 50°54' W 001°25'0 0.0
2018-May-14 11:29N 50°54' W 001°25'0 0.0
2018-May-14 10:56N 50°54' W 001°25'0 0.0
2018-May-14 10:28N 50°54' W 001°25'0 0.0
2018-May-14 09:52N 50°54' W 001°25'0 0.0
2018-May-14 09:28N 50°54' W 001°25'0 0.0
2018-May-14 08:58N 50°54' W 001°25'0 0.0
2018-May-14 08:28N 50°54' W 001°25'0 0.0
2018-May-14 07:55N 50°54' W 001°25'0 0.0
2018-May-14 07:28N 50°54' W 001°25'0 0.0
2018-May-14 06:58N 50°54' W 001°25'0 0.2
2018-May-14 06:30N 50°54' W 001°25'3 6.6
2018-May-14 06:00N 50°52' W 001°21'5 9.8
2018-May-14 05:30N 50°47' W 001°19'714.0
2018-May-14 05:00N 50°46' W 001°08'815.9
2018-May-14 04:30N 50°41' W 000°57'5 9.2
2018-May-14 04:00N 50°39' W 000°52'612.7
2018-May-14 03:30N 50°37' W 000°42'713.0
2018-May-14 03:00N 50°35' W 000°32'612.8
2018-May-14 02:30N 50°34' W 000°22'613.0
2018-May-14 02:00N 50°31' W 000°13'713.4
2018-May-14 01:30N 50°30' W 000°02'713.5
2018-May-14 01:00N 50°32' E 000°08'713.7
2018-May-14 00:30N 50°33' E 000°18'713.6
2018-May-14 00:00N 50°35' E 000°28'713.5
2018-May-13 23:29N 50°38' E 000°39'714.0
2018-May-13 23:01N 50°42' E 000°47'713.6
2018-May-13 22:30N 50°46' E 000°56'713.2
2018-May-13 22:00N 50°50' E 001°05'713.1
2018-May-13 21:30N 50°55' E 001°12'1012.8
2018-May-13 20:46N 51°02' E 001°22'311.9
2018-May-13 20:30N 51°04' E 001°26'612.5
2018-May-13 20:00N 51°07' E 001°34'713.4
2018-May-13 19:30N 51°11' E 001°42'713.9
2018-May-13 19:00N 51°17' E 001°49'714.3
2018-May-13 18:31N 51°23' E 001°54'815.3
2018-May-13 18:00N 51°30' E 002°01'816.6
2018-May-13 17:31N 51°36' E 002°10'816.3
2018-May-13 16:59N 51°42' E 002°19'815.7
2018-May-13 16:29N 51°48' E 002°28'815.2
2018-May-13 15:58N 51°53' E 002°37'1414.7
2018-May-13 15:00N 52°05' E 002°51'816.7
2018-May-13 14:30N 52°11' E 002°59'917.3
2018-May-13 14:00N 52°18' E 003°08'815.9
2018-May-13 13:30N 52°25' E 003°15'816.8
2018-May-13 13:00N 52°32' E 003°23'916.9
2018-May-13 12:29N 52°39' E 003°32'817.3
2018-May-13 12:00N 52°45' E 003°40'917.9
2018-May-13 11:30N 52°52' E 003°50'918.4
2018-May-13 11:00N 52°58' E 004°02'1018.7
2018-May-13 10:29N 53°04' E 004°14'919.0
2018-May-13 10:01N 53°11' E 004°24'1019.2
2018-May-13 09:30N 53°20' E 004°30'918.7
2018-May-13 09:01N 53°28' E 004°38'918.6
2018-May-13 08:31N 53°32' E 004°52'918.4
2018-May-13 08:01N 53°36' E 005°06'11617.9
2018-May-13 01:31N 53°60' E 008°19'014.6
2018-May-13 01:30N 53°60' E 008°19'814.8
2018-May-13 00:58N 53°58' E 008°33'613.4
2018-May-13 00:29N 53°54' E 008°41'612.1
2018-May-13 00:00N 53°50' E 008°49'613.1
2018-May-12 23:30N 53°51' E 008°60'611.9
2018-May-12 23:00N 53°53' E 009°09'4 8.7
2018-May-12 22:31N 53°52' E 009°17'612.0
2018-May-12 22:01N 53°47' E 009°23'510.2
2018-May-12 21:31N 53°43' E 009°28'510.1
2018-May-12 21:00N 53°39' E 009°31'510.9
2018-May-12 20:31N 53°35' E 009°38'510.3
2018-May-12 20:00N 53°34' E 009°46'5 9.7
2018-May-12 19:30N 53°33' E 009°54'1 2.6
2018-May-12 19:00N 53°33' E 009°56'0 0.0
2018-May-12 18:30N 53°33' E 009°56'0 0.0
2018-May-12 18:00N 53°33' E 009°56'0 0.0
2018-May-12 17:30N 53°33' E 009°56'0 0.0
2018-May-12 16:59N 53°33' E 009°56'0 0.0
2018-May-12 16:29N 53°33' E 009°56'0 0.0
2018-May-12 15:59N 53°33' E 009°56'0 0.0
2018-May-12 15:29N 53°33' E 009°56'0 0.0
2018-May-12 14:59N 53°33' E 009°56'0 0.0
2018-May-12 14:29N 53°33' E 009°56'  

Dump ship's entire track history